Time;durP1;ratioP1;P1;durP2;ratioP2;P2;SDS_P1;SDS_P2;PMS_P1;PMS_P2;Temp;Humidity;BMP_temperature;BMP_pressure;BME280_temperature;BME280_humidity;BME280_pressure;Samples;Min_cycle;Max_cycle;Signal;HPM_P1;HPM_P2
2022/10/21 00:02:09;;;;;;;0.20;0.20;;;15.90;92.20;;;;;;4000704;29;20060;-61
2022/10/21 00:04:50;;;;;;;0.00;0.00;;;15.90;92.20;;;;;;4015939;29;20079;-61
2022/10/21 00:07:31;;;;;;;0.30;0.30;;;15.90;92.30;;;;;;4016423;29;20114;-61
2022/10/21 00:10:12;;;;;;;0.00;0.00;;;15.90;92.30;;;;;;4016776;29;20389;-61
2022/10/21 00:12:54;;;;;;;0.03;0.03;;;15.90;92.30;;;;;;4016480;29;20064;-61
2022/10/21 00:15:35;;;;;;;0.10;0.10;;;15.90;92.30;;;;;;4016273;29;20365;-59
2022/10/21 00:18:16;;;;;;;0.00;0.00;;;15.90;92.30;;;;;;4016832;29;20176;-59
2022/10/21 00:20:57;;;;;;;0.00;0.00;;;15.90;92.30;;;;;;4016477;29;20504;-59
2022/10/21 00:23:38;;;;;;;0.00;0.00;;;15.90;92.30;;;;;;4016789;29;20191;-59
2022/10/21 00:26:19;;;;;;;0.00;0.00;;;15.90;92.30;;;;;;4016589;29;20060;-59
2022/10/21 00:29:01;;;;;;;0.17;0.17;;;15.80;92.30;;;;;;4016036;29;20530;-61
2022/10/21 00:31:42;;;;;;;0.25;0.25;;;15.90;92.30;;;;;;4015736;29;20060;-62
2022/10/21 00:34:23;;;;;;;0.10;0.10;;;15.90;92.30;;;;;;4012457;29;20065;-61
2022/10/21 00:37:08;;;;;;;0.00;0.00;;;15.90;92.70;;;;;;4016419;29;20055;-61
2022/10/21 00:39:49;;;;;;;2.58;0.28;;;15.90;92.40;;;;;;4016525;29;20060;-61
2022/10/21 00:42:33;;;;;;;1.75;0.60;;;15.90;92.40;;;;;;4004278;29;20065;-61
2022/10/21 00:45:22;;;;;;;0.00;0.00;;;15.90;92.40;;;;;;4016517;29;20101;-61
2022/10/21 00:48:06;;;;;;;0.08;0.08;;;15.90;92.40;;;;;;4004915;29;20108;-62
2022/10/21 00:50:53;;;;;;;0.55;0.55;;;15.80;92.40;;;;;;4015859;29;20104;-61
2022/10/21 00:53:35;;;;;;;1.10;1.10;;;15.90;92.40;;;;;;4015925;29;20133;-61
2022/10/21 00:56:23;;;;;;;0.00;0.00;;;15.80;92.40;;;;;;4016591;29;20508;-61
2022/10/21 00:59:06;;;;;;;0.00;0.00;;;15.80;92.40;;;;;;4021540;29;20064;-61
2022/10/21 01:01:49;;;;;;;0.00;0.00;;;15.90;92.40;;;;;;4017376;29;20214;-62
2022/10/21 01:04:30;;;;;;;0.00;0.00;;;15.80;92.40;;;;;;4016358;29;20398;-62
2022/10/21 01:07:11;;;;;;;0.00;0.00;;;15.80;92.40;;;;;;4016046;29;20109;-62
2022/10/21 01:09:52;;;;;;;0.35;0.35;;;15.80;92.40;;;;;;4016319;29;20121;-62
2022/10/21 01:12:42;;;;;;;0.15;0.15;;;15.80;92.40;;;;;;4016236;29;20053;-61
2022/10/21 01:15:29;;;;;;;0.10;0.10;;;15.80;92.40;;;;;;4016344;29;20182;-61
2022/10/21 01:18:18;;;;;;;0.00;0.00;;;15.80;92.40;;;;;;4016460;29;20064;-61
2022/10/21 01:21:14;;;;;;;0.68;0.68;;;15.80;92.40;;;;;;4030777;29;20059;-62
2022/10/21 01:24:46;;;;;;;0.00;0.00;;;15.80;92.40;;;;;;4030858;29;20068;-61
2022/10/21 01:27:42;;;;;;;0.00;0.00;;;15.80;92.40;;;;;;3954202;29;20066;-62
2022/10/21 01:30:36;;;;;;;0.32;0.32;;;15.70;92.40;;;;;;4023179;29;20610;-62
2022/10/21 01:33:40;;;;;;;0.00;0.00;;;15.80;92.50;;;;;;4031374;29;20056;-61
2022/10/21 01:36:31;;;;;;;0.00;0.00;;;15.80;92.90;;;;;;4031356;29;20504;-62
2022/10/21 01:39:22;;;;;;;0.00;0.00;;;15.80;92.50;;;;;;4016297;29;20132;-62
2022/10/21 01:42:08;;;;;;;0.20;0.20;;;15.80;92.50;;;;;;4020617;29;20480;-62
2022/10/21 01:45:00;;;;;;;1.40;1.40;;;15.80;92.50;;;;;;4015404;29;20146;-62
2022/10/21 01:47:47;;;;;;;0.00;0.00;;;15.80;92.50;;;;;;4015662;29;20105;-61
2022/10/21 01:50:32;;;;;;;0.08;0.08;;;15.70;92.50;;;;;;4015457;29;20068;-61
2022/10/21 01:53:15;;;;;;;0.20;0.20;;;15.80;92.50;;;;;;4015889;29;20204;-63
2022/10/21 01:55:59;;;;;;;0.08;0.08;;;15.80;92.50;;;;;;4032974;29;20546;-63
2022/10/21 01:58:43;;;;;;;0.00;0.00;;;15.80;92.50;;;;;;4032732;29;20209;-63
2022/10/21 02:01:24;;;;;;;0.28;0.28;;;15.80;92.90;;;;;;4018219;29;20056;-62
2022/10/21 02:04:09;;;;;;;0.52;0.30;;;15.80;92.50;;;;;;4018127;29;20065;-62
2022/10/21 02:06:50;;;;;;;0.00;0.00;;;15.70;92.50;;;;;;4017928;29;20513;-62
2022/10/21 02:09:31;;;;;;;0.20;0.20;;;15.70;92.50;;;;;;4006938;29;20520;-62
2022/10/21 02:12:17;;;;;;;0.45;0.45;;;15.70;92.50;;;;;;4033435;29;20056;-61
2022/10/21 02:15:00;;;;;;;0.30;0.30;;;15.70;92.50;;;;;;4033497;29;20072;-61
2022/10/21 02:17:46;;;;;;;3.40;0.55;;;15.70;92.50;;;;;;4018377;29;20051;-62
2022/10/21 02:20:34;;;;;;;0.00;0.00;;;15.70;92.60;;;;;;4003126;29;20057;-61
2022/10/21 02:23:19;;;;;;;0.20;0.20;;;15.70;92.60;;;;;;3991609;29;20069;-62
2022/10/21 02:26:00;;;;;;;0.00;0.00;;;15.70;92.60;;;;;;4002999;29;20057;-61
2022/10/21 02:28:41;;;;;;;0.20;0.20;;;15.70;92.60;;;;;;4003218;29;20061;-62
2022/10/21 02:31:42;;;;;;;0.88;0.88;;;15.70;92.60;;;;;;4013796;29;20537;-63
2022/10/21 02:34:33;;;;;;;0.20;0.20;;;15.70;93.00;;;;;;4007809;29;20421;-62
2022/10/21 02:37:18;;;;;;;;;;;15.70;92.60;;;;;;4018974;29;20072;-62
2022/10/21 02:40:05;;;;;;;0.38;0.38;;;15.70;92.60;;;;;;4019483;29;19937;-62
2022/10/21 02:42:52;;;;;;;0.00;0.00;;;15.70;92.60;;;;;;4017920;29;20060;-61
2022/10/21 02:45:33;;;;;;;0.52;0.52;;;15.70;92.60;;;;;;4017438;29;20105;-62
2022/10/21 02:48:14;;;;;;;;;;;15.70;92.60;;;;;;4003643;29;20057;-62
2022/10/21 02:50:55;;;;;;;0.03;0.03;;;15.70;92.60;;;;;;4017422;29;19931;-62
2022/10/21 02:53:38;;;;;;;0.08;0.08;;;15.70;92.60;;;;;;4017422;29;20076;-61
2022/10/21 02:56:18;;;;;;;0.00;0.00;;;15.70;92.70;;;;;;4017609;29;20053;-61
2022/10/21 02:58:59;;;;;;;0.20;0.20;;;15.70;92.70;;;;;;4017761;29;20052;-61
2022/10/21 03:01:40;;;;;;;0.03;0.03;;;15.70;93.10;;;;;;4002479;29;20509;-62
2022/10/21 03:04:21;;;;;;;0.10;0.10;;;15.70;92.80;;;;;;4022058;29;20125;-62
2022/10/21 03:07:02;;;;;;;0.10;0.10;;;15.70;92.80;;;;;;4017416;29;20060;-62
2022/10/21 03:09:44;;;;;;;0.00;0.00;;;15.70;92.90;;;;;;4002570;29;20346;-62
2022/10/21 03:12:25;;;;;;;0.00;0.00;;;15.70;92.90;;;;;;4017325;29;20520;-62
2022/10/21 03:15:06;;;;;;;0.00;0.00;;;15.70;92.90;;;;;;4027709;29;20047;-62
2022/10/21 03:17:48;;;;;;;0.35;0.35;;;15.70;92.80;;;;;;4032919;29;20051;-62
2022/10/21 03:20:28;;;;;;;0.08;0.08;;;15.70;92.90;;;;;;4032716;29;20064;-62
2022/10/21 03:23:09;;;;;;;0.00;0.00;;;15.70;92.80;;;;;;4017252;29;20144;-62
2022/10/21 03:25:51;;;;;;;0.00;0.00;;;15.70;92.80;;;;;;4017062;29;20114;-62
2022/10/21 03:28:33;;;;;;;0.00;0.00;;;15.70;92.80;;;;;;4017753;29;20072;-61
2022/10/21 03:31:14;;;;;;;0.08;0.08;;;15.70;92.80;;;;;;4032796;29;20060;-62
2022/10/21 03:33:54;;;;;;;0.15;0.15;;;15.70;92.80;;;;;;4017042;29;20518;-62
2022/10/21 03:36:35;;;;;;;0.00;0.00;;;15.70;92.80;;;;;;4017300;29;20117;-62
2022/10/21 03:39:16;;;;;;;0.00;0.00;;;15.70;92.80;;;;;;4017519;29;20100;-62
2022/10/21 03:41:59;;;;;;;0.98;0.63;;;15.70;92.80;;;;;;4032407;29;20055;-63
2022/10/21 03:44:39;;;;;;;0.00;0.00;;;15.70;92.80;;;;;;4028803;29;20456;-62
2022/10/21 03:47:20;;;;;;;0.00;0.00;;;15.70;92.80;;;;;;4011732;29;20064;-61
2022/10/21 03:50:01;;;;;;;0.22;0.22;;;15.70;92.80;;;;;;4013797;29;20409;-62
2022/10/21 03:52:43;;;;;;;0.00;0.00;;;15.70;92.80;;;;;;4016889;29;20424;-61
2022/10/21 03:55:24;;;;;;;0.00;0.00;;;15.70;92.80;;;;;;4032658;29;20209;-61
2022/10/21 03:58:06;;;;;;;3.97;0.77;;;15.70;92.80;;;;;;4031137;29;20073;-62
2022/10/21 04:00:51;;;;;;;0.20;0.20;;;15.70;92.80;;;;;;4027540;29;20531;-61
2022/10/21 04:03:32;;;;;;;0.45;0.45;;;15.70;92.80;;;;;;4031133;29;20068;-62
2022/10/21 04:06:13;;;;;;;0.00;0.00;;;15.70;92.80;;;;;;4032326;29;20048;-61
2022/10/21 04:08:54;;;;;;;0.00;0.00;;;15.70;92.80;;;;;;4017051;29;20124;-61
2022/10/21 04:11:35;;;;;;;0.10;0.10;;;15.70;92.80;;;;;;4016512;29;20056;-61
2022/10/21 04:14:18;;;;;;;0.00;0.00;;;15.70;92.80;;;;;;4016497;29;20056;-61
2022/10/21 04:16:59;;;;;;;0.55;0.55;;;15.70;92.80;;;;;;4016771;29;20069;-62
2022/10/21 04:19:47;;;;;;;0.10;0.10;;;15.70;92.90;;;;;;4016918;29;20067;-62
2022/10/21 04:22:28;;;;;;;7.90;0.88;;;15.70;92.80;;;;;;4016914;29;20461;-59
2022/10/21 04:25:09;;;;;;;0.00;0.00;;;15.80;92.90;;;;;;4017000;29;20068;-58
2022/10/21 04:27:50;;;;;;;2.08;1.90;;;15.80;92.90;;;;;;4017157;29;20073;-59
2022/10/21 04:30:32;;;;;;;0.00;0.00;;;15.70;92.80;;;;;;4016591;29;20482;-58
2022/10/21 04:33:13;;;;;;;0.00;0.00;;;15.70;92.90;;;;;;4016455;29;20213;-58
2022/10/21 04:35:54;;;;;;;0.00;0.00;;;15.70;92.90;;;;;;4016237;29;20182;-59
2022/10/21 04:38:35;;;;;;;0.70;0.45;;;15.70;92.90;;;;;;4017793;29;20064;-59
2022/10/21 04:41:17;;;;;;;0.00;0.00;;;15.70;92.90;;;;;;4031204;29;20134;-59
2022/10/21 04:43:57;;;;;;;0.00;0.00;;;15.70;92.90;;;;;;4031662;29;20059;-59
2022/10/21 04:46:40;;;;;;;0.00;0.00;;;15.70;92.90;;;;;;4016376;29;20056;-59
2022/10/21 04:49:20;;;;;;;0.10;0.10;;;15.70;92.90;;;;;;4016048;29;20186;-59
2022/10/21 04:52:01;;;;;;;0.00;0.00;;;15.70;92.90;;;;;;4007450;29;20056;-59
2022/10/21 04:54:42;;;;;;;0.13;0.13;;;15.70;92.90;;;;;;4016023;29;20072;-59
2022/10/21 04:57:23;;;;;;;0.57;0.57;;;15.70;92.90;;;;;;4016439;29;20487;-59
2022/10/21 05:00:05;;;;;;;0.00;0.00;;;15.70;93.10;;;;;;4016101;29;20599;-59
2022/10/21 05:02:47;;;;;;;;;;;15.70;93.00;;;;;;4016303;29;20056;-59
2022/10/21 05:05:28;;;;;;;0.15;0.15;;;15.70;92.90;;;;;;4004787;29;19931;-58
2022/10/21 05:08:08;;;;;;;0.00;0.00;;;15.70;93.00;;;;;;4016220;29;20386;-59
2022/10/21 05:10:57;;;;;;;0.00;0.00;;;15.70;93.00;;;;;;4002765;29;20129;-59
2022/10/21 05:13:37;;;;;;;0.10;0.10;;;15.70;93.00;;;;;;4016213;29;20057;-59
2022/10/21 05:16:18;;;;;;;0.15;0.15;;;15.70;93.00;;;;;;4015925;29;20060;-59
2022/10/21 05:19:01;;;;;;;0.00;0.00;;;15.70;93.40;;;;;;4015610;29;20069;-58
2022/10/21 05:21:42;;;;;;;0.00;0.00;;;15.70;93.00;;;;;;4016098;29;20072;-59
2022/10/21 05:24:22;;;;;;;0.05;0.05;;;15.70;93.00;;;;;;4019739;29;20064;-59
2022/10/21 05:27:03;;;;;;;0.00;0.00;;;15.70;93.00;;;;;;4031554;29;20064;-59
2022/10/21 05:29:44;;;;;;;0.00;0.00;;;15.70;93.00;;;;;;4018050;29;20409;-59
2022/10/21 05:32:25;;;;;;;0.00;0.00;;;15.70;93.00;;;;;;4034093;29;20201;-59
2022/10/21 05:35:08;;;;;;;0.22;0.22;;;15.70;93.00;;;;;;4034196;29;20060;-59
2022/10/21 05:37:48;;;;;;;0.00;0.00;;;15.70;93.00;;;;;;4034521;29;20108;-59
2022/10/21 05:40:29;;;;;;;0.00;0.00;;;15.70;93.00;;;;;;4033902;29;20063;-59
2022/10/21 05:43:11;;;;;;;0.10;0.10;;;15.70;93.00;;;;;;4034247;29;20076;-59
2022/10/21 05:45:52;;;;;;;0.10;0.10;;;15.70;93.00;;;;;;4034114;29;20497;-59
2022/10/21 05:48:32;;;;;;;0.00;0.00;;;15.70;93.40;;;;;;4030951;29;20376;-59
2022/10/21 05:51:15;;;;;;;0.25;0.25;;;15.70;93.10;;;;;;4018603;29;20166;-59
2022/10/21 05:53:57;;;;;;;0.00;0.00;;;15.70;93.10;;;;;;4018574;29;20186;-59
2022/10/21 05:56:37;;;;;;;0.52;0.52;;;15.70;93.10;;;;;;4018621;29;20145;-58
2022/10/21 05:59:19;;;;;;;0.05;0.05;;;15.70;93.20;;;;;;4003555;29;20065;-58
2022/10/21 06:01:59;;;;;;;0.00;0.00;;;15.70;93.20;;;;;;4003852;29;20186;-59
2022/10/21 06:04:40;;;;;;;0.43;0.43;;;15.70;93.30;;;;;;4018341;29;20056;-60
2022/10/21 06:07:23;;;;;;;0.03;0.03;;;15.70;93.30;;;;;;4031617;29;20512;-59
2022/10/21 06:10:04;;;;;;;0.30;0.30;;;15.70;93.50;;;;;;4018449;29;20067;-60
2022/10/21 06:12:45;;;;;;;0.00;0.00;;;15.80;93.50;;;;;;4010420;29;20194;-59
2022/10/21 06:15:26;;;;;;;0.40;0.40;;;15.80;93.40;;;;;;4032954;29;20469;-60
2022/10/21 06:18:07;;;;;;;0.00;0.00;;;15.70;93.30;;;;;;4017681;29;20113;-60
2022/10/21 06:20:47;;;;;;;0.88;0.45;;;15.80;93.30;;;;;;4033873;29;20059;-60
2022/10/21 06:23:30;;;;;;;0.00;0.00;;;15.70;93.20;;;;;;4002791;29;20073;-60
2022/10/21 06:26:13;;;;;;;0.00;0.00;;;15.70;93.20;;;;;;4024262;29;20108;-60
2022/10/21 06:28:53;;;;;;;0.10;0.10;;;15.70;93.20;;;;;;4017766;29;20056;-60
2022/10/21 06:31:35;;;;;;;0.55;0.55;;;15.70;93.20;;;;;;4026208;29;20189;-63
2022/10/21 06:34:16;;;;;;;5.07;2.30;;;15.70;93.20;;;;;;4032768;29;20504;-64
2022/10/21 06:37:02;;;;;;;0.00;0.00;;;15.70;93.20;;;;;;4017881;29;20129;-63
2022/10/21 06:39:44;;;;;;;0.10;0.10;;;15.70;93.20;;;;;;4025638;29;20048;-64
2022/10/21 06:42:25;;;;;;;0.25;0.25;;;15.70;93.20;;;;;;4032744;29;20060;-64
2022/10/21 06:45:07;;;;;;;0.40;0.40;;;15.70;93.20;;;;;;4021075;29;20064;-64
2022/10/21 06:47:47;;;;;;;1.13;1.05;;;15.70;93.20;;;;;;4032857;29;20055;-64
2022/10/21 06:50:29;;;;;;;0.00;0.00;;;15.70;93.10;;;;;;4017753;29;20205;-64
2022/10/21 06:53:10;;;;;;;0.00;0.00;;;15.70;93.20;;;;;;4017664;29;20052;-60
2022/10/21 06:56:00;;;;;;;0.10;0.10;;;15.70;93.20;;;;;;4031816;29;20076;-60
2022/10/21 06:58:42;;;;;;;0.00;0.00;;;15.70;93.20;;;;;;4032789;29;20048;-61
2022/10/21 07:01:25;;;;;;;0.73;0.73;;;15.70;93.20;;;;;;4032619;29;20412;-60
2022/10/21 07:04:15;;;;;;;0.43;0.43;;;15.70;93.20;;;;;;4032864;29;20213;-60
2022/10/21 07:06:55;;;;;;;0.65;0.65;;;15.70;93.20;;;;;;4017635;29;20504;-60
2022/10/21 07:09:36;;;;;;;0.10;0.10;;;15.70;93.20;;;;;;4017053;29;20076;-60
2022/10/21 07:12:19;;;;;;;0.00;0.00;;;15.70;93.20;;;;;;4032510;29;20047;-60
2022/10/21 07:14:59;;;;;;;0.55;0.55;;;15.70;93.20;;;;;;4020759;29;20808;-64
2022/10/21 07:17:41;;;;;;;0.00;0.00;;;15.70;93.20;;;;;;4032626;29;20413;-61
2022/10/21 07:20:22;;;;;;;0.28;0.28;;;15.70;93.20;;;;;;4032406;29;20072;-64
2022/10/21 07:23:03;;;;;;;0.13;0.13;;;15.70;93.20;;;;;;4016839;29;20092;-60
2022/10/21 07:25:44;;;;;;;0.00;0.00;;;15.70;93.20;;;;;;4016935;29;20052;-60
2022/10/21 07:28:26;;;;;;;0.00;0.00;;;15.70;93.20;;;;;;4016624;29;20052;-59
2022/10/21 07:31:07;;;;;;;0.00;0.00;;;15.70;93.20;;;;;;4016475;29;20089;-60
2022/10/21 07:33:48;;;;;;;0.15;0.15;;;15.70;93.20;;;;;;4031470;29;20061;-60
2022/10/21 07:36:31;;;;;;;0.20;0.20;;;15.70;93.20;;;;;;4031951;29;20059;-60
2022/10/21 07:39:14;;;;;;;0.25;0.25;;;15.70;93.20;;;;;;4031315;29;21059;-60
2022/10/21 07:41:57;;;;;;;0.10;0.10;;;15.70;93.20;;;;;;4031937;29;20096;-60
2022/10/21 07:44:39;;;;;;;0.10;0.10;;;15.70;93.20;;;;;;4030318;29;20055;-60
2022/10/21 07:47:20;;;;;;;0.00;0.00;;;15.70;93.20;;;;;;4020454;29;20522;-63
2022/10/21 07:50:01;;;;;;;0.55;0.55;;;15.70;93.20;;;;;;4023145;29;20093;-60
2022/10/21 07:52:45;;;;;;;0.00;0.00;;;15.70;93.20;;;;;;4031379;29;20853;-60
2022/10/21 07:55:31;;;;;;;0.47;0.35;;;15.70;93.20;;;;;;4032073;29;20138;-60
2022/10/21 07:58:11;;;;;;;0.00;0.00;;;15.70;93.20;;;;;;4031651;29;20531;-60
2022/10/21 08:00:58;;;;;;;0.85;0.55;;;15.70;93.20;;;;;;4032116;29;20056;-60
2022/10/21 08:03:39;;;;;;;0.10;0.10;;;15.70;93.20;;;;;;4031541;29;20148;-60
2022/10/21 08:06:20;;;;;;;0.10;0.10;;;15.70;93.20;;;;;;4025432;29;20080;-60
2022/10/21 08:09:02;;;;;;;0.00;0.00;;;15.70;93.20;;;;;;4031124;29;20193;-60
2022/10/21 08:11:43;;;;;;;0.00;0.00;;;15.70;93.20;;;;;;4031973;29;20059;-60
2022/10/21 08:14:24;;;;;;;0.00;0.00;;;15.80;93.20;;;;;;4018135;29;20060;-60
2022/10/21 08:17:07;;;;;;;0.10;0.10;;;15.70;93.20;;;;;;4016258;29;20414;-61
2022/10/21 08:19:47;;;;;;;1.45;1.25;;;15.70;93.20;;;;;;4016376;29;20517;-60
2022/10/21 08:22:28;;;;;;;0.40;0.40;;;15.80;93.20;;;;;;4016066;29;20072;-60
2022/10/21 08:25:10;;;;;;;0.28;0.28;;;15.80;93.60;;;;;;4015818;29;20053;-60
2022/10/21 08:27:51;;;;;;;0.10;0.10;;;15.80;93.20;;;;;;4001184;29;20052;-60
2022/10/21 08:30:32;;;;;;;0.10;0.10;;;15.80;93.10;;;;;;4020262;29;20389;-60
2022/10/21 08:33:16;;;;;;;0.00;0.00;;;15.80;93.10;;;;;;4031375;29;20476;-62
2022/10/21 08:35:56;;;;;;;16.35;2.45;;;15.80;93.20;;;;;;4021938;29;20202;-62
2022/10/21 08:38:38;;;;;;;0.00;0.00;;;15.80;93.20;;;;;;4031014;29;20088;-63
2022/10/21 08:41:41;;;;;;;0.52;0.52;;;15.80;93.20;;;;;;4030947;29;20185;-60
2022/10/21 08:44:29;;;;;;;0.30;0.20;;;15.90;93.50;;;;;;4030916;29;20096;-59
2022/10/21 08:47:22;;;;;;;0.00;0.00;;;15.80;93.20;;;;;;4031382;29;20060;-60
2022/10/21 08:50:10;;;;;;;0.10;0.10;;;15.90;93.30;;;;;;4030927;29;20452;-60
2022/10/21 08:52:57;;;;;;;0.00;0.00;;;15.90;93.30;;;;;;4015231;29;20449;-59
2022/10/21 08:55:39;;;;;;;0.00;0.00;;;15.90;93.20;;;;;;4015879;29;20364;-60
2022/10/21 08:58:23;;;;;;;0.10;0.10;;;15.90;93.60;;;;;;4016084;29;20060;-59
2022/10/21 09:01:12;;;;;;;0.10;0.10;;;16.00;93.20;;;;;;4020216;29;20071;-59
2022/10/21 09:03:57;;;;;;;0.17;0.17;;;16.00;93.60;;;;;;4017232;29;20125;-60
2022/10/21 09:06:48;;;;;;;0.00;0.00;;;16.00;93.20;;;;;;4019212;29;20059;-59
2022/10/21 09:09:34;;;;;;;0.00;0.00;;;16.00;93.10;;;;;;4019110;29;20057;-59
2022/10/21 09:12:22;;;;;;;0.00;0.00;;;16.00;93.10;;;;;;4019433;29;20076;-59
2022/10/21 09:15:24;;;;;;;0.00;0.00;;;16.00;93.10;;;;;;4018798;29;20055;-59
2022/10/21 09:18:12;;;;;;;;;;;16.00;93.10;;;;;;4019511;29;20057;-59
2022/10/21 09:21:00;;;;;;;0.47;0.47;;;16.00;93.10;;;;;;4019158;29;19935;-59
2022/10/21 09:23:57;;;;;;;0.00;0.00;;;16.00;93.00;;;;;;4018457;29;20063;-60
2022/10/21 09:26:41;;;;;;;0.20;0.20;;;16.00;93.00;;;;;;4018971;29;20056;-59
2022/10/21 09:29:28;;;;;;;0.00;0.00;;;16.00;93.00;;;;;;4019064;29;20561;-58
2022/10/21 09:32:14;;;;;;;0.00;0.00;;;16.10;93.00;;;;;;4016236;29;20057;-59
2022/10/21 09:35:00;;;;;;;0.10;0.10;;;16.10;93.40;;;;;;4015978;29;20668;-59
2022/10/21 09:37:44;;;;;;;0.20;0.20;;;16.10;93.00;;;;;;4012645;29;20433;-59
2022/10/21 09:40:30;;;;;;;0.00;0.00;;;16.10;93.00;;;;;;4019839;29;20060;-59
2022/10/21 09:43:16;;;;;;;2.20;0.65;;;16.10;93.00;;;;;;4019068;29;20088;-58
2022/10/21 09:45:58;;;;;;;0.13;0.13;;;16.10;93.00;;;;;;4018754;29;20056;-58
2022/10/21 09:48:44;;;;;;;0.10;0.10;;;16.10;93.00;;;;;;4029623;29;20068;-59
2022/10/21 09:51:46;;;;;;;0.00;0.00;;;16.10;93.00;;;;;;4032252;29;20158;-58
2022/10/21 09:54:29;;;;;;;;;;;16.10;93.40;;;;;;4034212;29;20056;-58
2022/10/21 09:57:15;;;;;;;2.58;0.90;;;16.20;93.00;;;;;;4034072;29;19931;-59
2022/10/21 10:00:00;;;;;;;0.00;0.00;;;16.10;93.00;;;;;;4033474;29;20694;-58
2022/10/21 10:02:43;;;;;;;0.00;0.00;;;16.10;93.00;;;;;;4018143;29;20060;-59
2022/10/21 10:05:38;;;;;;;0.00;0.00;;;16.10;93.00;;;;;;4018084;29;20553;-59
2022/10/21 10:08:32;;;;;;;0.00;0.00;;;16.20;93.10;;;;;;4017252;29;20155;-59
2022/10/21 10:11:16;;;;;;;0.00;0.00;;;16.20;93.10;;;;;;4018108;29;20068;-58
2022/10/21 10:14:22;;;;;;;0.00;0.00;;;16.20;93.20;;;;;;4018144;29;20512;-58
2022/10/21 10:17:29;;;;;;;0.32;0.32;;;16.20;93.20;;;;;;4017884;29;20145;-59
2022/10/21 10:20:17;;;;;;;2.50;0.98;;;16.20;93.10;;;;;;4017861;29;20390;-58
2022/10/21 10:23:16;;;;;;;0.43;0.43;;;16.20;93.10;;;;;;4033451;29;20055;-59
2022/10/21 10:25:57;;;;;;;1.55;1.15;;;16.20;93.00;;;;;;4002605;29;20102;-58
2022/10/21 10:28:38;;;;;;;3.10;2.80;;;16.30;93.00;;;;;;4002058;29;20409;-58
2022/10/21 10:31:30;;;;;;;0.40;0.40;;;16.30;93.00;;;;;;4002939;29;20855;-60
2022/10/21 10:34:21;;;;;;;0.00;0.00;;;16.30;93.00;;;;;;4017891;29;20048;-59
2022/10/21 10:37:04;;;;;;;;;;;16.30;93.00;;;;;;4018069;29;20068;-60
2022/10/21 10:39:48;;;;;;;0.50;0.50;;;16.30;93.00;;;;;;4006438;29;19935;-59
2022/10/21 10:42:33;;;;;;;0.00;0.00;;;16.40;93.00;;;;;;4031200;29;20072;-60
2022/10/21 10:45:19;;;;;;;0.00;0.00;;;16.40;93.00;;;;;;4017762;29;20409;-59
2022/10/21 10:48:03;;;;;;;0.00;0.00;;;16.40;93.00;;;;;;4017944;29;20060;-60
2022/10/21 10:50:47;;;;;;;0.00;0.00;;;16.40;93.00;;;;;;4017552;29;20065;-60
2022/10/21 10:53:30;;;;;;;0.00;0.00;;;16.40;93.00;;;;;;4017865;29;20497;-60
2022/10/21 10:56:19;;;;;;;4.03;2.25;;;16.40;93.00;;;;;;4014535;29;20052;-59
2022/10/21 10:59:10;;;;;;;1.55;1.05;;;16.50;93.10;;;;;;4003552;29;20137;-59
2022/10/21 11:02:00;;;;;;;0.08;0.08;;;16.50;93.10;;;;;;4017544;29;20141;-59
2022/10/21 11:04:48;;;;;;;0.85;0.85;;;16.50;93.00;;;;;;4021732;29;20063;-59
2022/10/21 11:07:35;;;;;;;0.10;0.10;;;16.50;93.00;;;;;;4033021;29;20072;-59
2022/10/21 11:10:36;;;;;;;0.10;0.10;;;16.50;93.10;;;;;;4033040;29;20064;-60
2022/10/21 11:13:18;;;;;;;0.50;0.50;;;16.50;93.00;;;;;;4032497;29;20119;-59
2022/10/21 11:16:11;;;;;;;1.67;1.45;;;16.50;93.00;;;;;;4032846;29;20075;-59
2022/10/21 11:18:59;;;;;;;0.00;0.00;;;16.60;93.00;;;;;;4031414;29;20609;-60
2022/10/21 11:21:51;;;;;;;0.00;0.00;;;16.60;93.00;;;;;;4018087;29;20181;-59
2022/10/21 11:24:50;;;;;;;0.43;0.43;;;16.60;93.00;;;;;;4019722;29;20071;-60
2022/10/21 11:27:51;;;;;;;4.38;0.85;;;16.60;93.00;;;;;;4032255;29;20060;-59
2022/10/21 11:30:43;;;;;;;0.00;0.00;;;16.60;93.00;;;;;;4032636;29;20112;-59
2022/10/21 11:33:35;;;;;;;0.10;0.10;;;16.60;93.00;;;;;;4015193;29;20053;-63
2022/10/21 11:36:24;;;;;;;0.40;0.40;;;16.60;92.90;;;;;;4020353;29;20097;-66
2022/10/21 11:39:37;;;;;;;0.00;0.00;;;16.70;93.40;;;;;;4032204;29;20121;-61
2022/10/21 11:42:26;;;;;;;0.00;0.00;;;16.70;93.40;;;;;;4016574;29;20739;-62
2022/10/21 11:45:25;;;;;;;0.00;0.00;;;16.70;93.50;;;;;;3998790;29;20064;-61
2022/10/21 11:48:17;;;;;;;0.43;0.43;;;16.70;93.30;;;;;;4016229;29;20075;-62
2022/10/21 11:51:10;;;;;;;0.00;0.00;;;16.80;93.60;;;;;;4030490;29;20528;-61
2022/10/21 11:54:07;;;;;;;0.35;0.35;;;16.80;93.10;;;;;;4013010;29;20716;-61
2022/10/21 11:56:58;;;;;;;0.00;0.00;;;16.80;93.10;;;;;;4032228;29;20064;-61
2022/10/21 11:59:59;;;;;;;0.00;0.00;;;16.80;93.00;;;;;;4005414;29;20088;-61
2022/10/21 12:02:43;;;;;;;0.00;0.00;;;16.80;92.90;;;;;;4021277;29;20262;-61
2022/10/21 12:05:30;;;;;;;0.00;0.00;;;16.80;92.90;;;;;;4016964;29;20064;-61
2022/10/21 12:08:16;;;;;;;0.00;0.00;;;16.80;93.30;;;;;;4016980;29;20068;-61
2022/10/21 12:11:01;;;;;;;0.00;0.00;;;16.80;92.90;;;;;;4016561;29;20418;-61
2022/10/21 12:13:46;;;;;;;0.00;0.00;;;16.80;92.80;;;;;;4000278;29;20056;-61
2022/10/21 12:16:30;;;;;;;0.30;0.30;;;16.90;92.90;;;;;;4001575;29;20064;-61
2022/10/21 12:19:13;;;;;;;0.10;0.10;;;16.80;92.80;;;;;;4001531;29;20061;-61
2022/10/21 12:21:54;;;;;;;0.00;0.00;;;16.80;92.70;;;;;;4002010;29;20186;-61
2022/10/21 12:24:44;;;;;;;1.75;0.35;;;16.90;92.80;;;;;;4001992;29;20110;-61
2022/10/21 12:27:31;;;;;;;0.08;0.08;;;16.90;92.70;;;;;;4003183;29;20084;-61
2022/10/21 12:30:18;;;;;;;0.00;0.00;;;16.90;92.70;;;;;;4016402;29;20579;-61
2022/10/21 12:33:17;;;;;;;0.00;0.00;;;16.90;92.70;;;;;;4015989;29;20347;-61
2022/10/21 12:36:17;;;;;;;0.00;0.00;;;16.90;92.60;;;;;;4016396;29;20076;-61
2022/10/21 12:38:59;;;;;;;0.00;0.00;;;16.90;92.70;;;;;;4030567;29;20515;-66
2022/10/21 12:41:41;;;;;;;0.00;0.00;;;16.90;92.60;;;;;;4015834;29;20520;-61
2022/10/21 12:44:23;;;;;;;;;;;16.90;92.60;;;;;;4016392;29;20060;-63
2022/10/21 12:47:20;;;;;;;;;;;16.90;92.60;;;;;;4016757;29;19935;-61
2022/10/21 12:50:07;;;;;;;0.00;0.00;;;16.90;92.60;;;;;;4016096;29;20340;-62
2022/10/21 12:53:11;;;;;;;0.00;0.00;;;16.90;92.60;;;;;;4016138;29;20611;-61
2022/10/21 12:55:57;;;;;;;0.03;0.03;;;16.90;92.60;;;;;;4016146;29;20072;-61
2022/10/21 12:58:42;;;;;;;0.03;0.03;;;16.90;92.60;;;;;;4015647;29;20231;-61
2022/10/21 13:01:42;;;;;;;0.00;0.00;;;16.90;92.60;;;;;;4001298;29;20072;-61
2022/10/21 13:04:48;;;;;;;0.00;0.00;;;16.90;92.60;;;;;;4000794;29;20057;-61
2022/10/21 13:07:37;;;;;;;0.00;0.00;;;16.90;92.60;;;;;;4003702;29;20069;-61
2022/10/21 13:10:26;;;;;;;0.05;0.05;;;16.90;92.70;;;;;;4000993;29;20053;-61
2022/10/21 13:13:32;;;;;;;0.00;0.00;;;16.90;92.60;;;;;;4000907;29;20074;-61
2022/10/21 13:16:36;;;;;;;0.00;0.00;;;16.90;92.70;;;;;;3985876;29;20061;-61
2022/10/21 13:19:33;;;;;;;0.00;0.00;;;16.90;92.60;;;;;;4000845;29;20492;-61
2022/10/21 13:22:34;;;;;;;0.00;0.00;;;16.90;92.60;;;;;;4000721;29;20145;-61
2022/10/21 13:25:21;;;;;;;0.00;0.00;;;16.90;92.60;;;;;;4000731;29;20098;-61
2022/10/21 13:28:05;;;;;;;0.00;0.00;;;16.90;92.60;;;;;;4000526;29;20242;-61
2022/10/21 13:30:59;;;;;;;0.03;0.03;;;16.90;92.60;;;;;;3987538;29;20057;-61
2022/10/21 13:33:51;;;;;;;0.20;0.20;;;16.90;92.60;;;;;;3996659;29;20203;-62
2022/10/21 13:36:38;;;;;;;0.00;0.00;;;16.90;93.00;;;;;;4000948;29;20110;-66
2022/10/21 13:39:25;;;;;;;0.00;0.00;;;16.90;92.60;;;;;;4015828;29;20529;-64
2022/10/21 13:42:11;;;;;;;0.55;0.55;;;16.90;92.80;;;;;;4015158;29;20052;-63
2022/10/21 13:45:01;;;;;;;0.00;0.00;;;16.90;92.70;;;;;;3973856;29;20060;-63
2022/10/21 13:47:43;;;;;;;0.10;0.10;;;17.00;92.50;;;;;;3985728;29;20057;-63
2022/10/21 13:50:27;;;;;;;3.10;2.25;;;17.00;92.40;;;;;;3997402;29;20060;-63
2022/10/21 13:53:27;;;;;;;0.38;0.38;;;17.00;92.30;;;;;;4011044;29;20245;-62
2022/10/21 13:56:20;;;;;;;0.00;0.00;;;17.00;92.30;;;;;;4018220;29;20067;-63
2022/10/21 13:59:01;;;;;;;0.17;0.17;;;17.00;92.30;;;;;;4019079;29;20070;-62
2022/10/21 14:01:47;;;;;;;0.00;0.00;;;17.00;92.30;;;;;;4034019;29;20052;-62
2022/10/21 14:04:30;;;;;;;0.52;0.52;;;17.00;92.20;;;;;;4017848;29;20056;-63
2022/10/21 14:07:18;;;;;;;0.30;0.30;;;17.00;92.60;;;;;;4002995;29;20194;-62
2022/10/21 14:09:59;;;;;;;0.00;0.00;;;17.00;92.20;;;;;;4002967;29;20092;-62
2022/10/21 14:12:44;;;;;;;0.20;0.20;;;17.00;92.20;;;;;;4008936;29;20048;-62
2022/10/21 14:15:37;;;;;;;0.93;0.70;;;17.00;92.20;;;;;;4018895;29;20201;-62
2022/10/21 14:18:28;;;;;;;0.00;0.00;;;17.00;92.20;;;;;;4033292;29;20127;-63
2022/10/21 14:21:19;;;;;;;0.20;0.20;;;17.00;92.20;;;;;;4033357;29;20052;-63
2022/10/21 14:24:00;;;;;;;0.00;0.00;;;17.00;92.10;;;;;;4017905;29;20064;-63